createdAt,value
2022-12-31T00:00:25.545Z,100.00
2022-12-31T00:02:52.781Z,100.00
2022-12-31T00:05:19.971Z,100.00
2022-12-31T00:07:47.053Z,100.00
2022-12-31T00:10:14.415Z,100.00
2022-12-31T00:12:41.479Z,100.00
2022-12-31T00:15:08.793Z,100.00
2022-12-31T00:17:35.917Z,100.00
2022-12-31T00:20:03.250Z,100.00
2022-12-31T00:22:30.418Z,100.00
2022-12-31T00:24:57.475Z,100.00
2022-12-31T00:27:24.567Z,100.00
2022-12-31T00:29:51.753Z,100.00
2022-12-31T00:32:19.575Z,100.00
2022-12-31T00:34:46.646Z,100.00
2022-12-31T00:37:13.725Z,100.00
2022-12-31T00:39:40.845Z,100.00
2022-12-31T00:42:08.018Z,100.00
2022-12-31T00:44:35.096Z,100.00
2022-12-31T00:47:02.205Z,100.00
2022-12-31T00:49:29.301Z,100.00
2022-12-31T00:51:56.454Z,100.00
2022-12-31T00:54:23.586Z,100.00
2022-12-31T00:56:50.724Z,100.00
2022-12-31T00:59:17.793Z,100.00
2022-12-31T01:01:45.012Z,100.00
2022-12-31T01:04:20.036Z,100.00
2022-12-31T01:06:47.629Z,100.00
2022-12-31T01:09:17.193Z,100.00
2022-12-31T01:11:44.928Z,100.00
2022-12-31T01:14:18.762Z,100.00
2022-12-31T01:16:52.530Z,100.00
2022-12-31T01:19:26.750Z,100.00
2022-12-31T01:21:54.779Z,100.00
2022-12-31T01:24:22.359Z,100.00
2022-12-31T01:26:51.156Z,100.00
2022-12-31T01:29:18.676Z,100.00
2022-12-31T01:31:45.774Z,100.00
2022-12-31T01:34:13.000Z,100.00
2022-12-31T01:36:40.613Z,100.00
2022-12-31T01:39:10.527Z,100.00
2022-12-31T01:41:45.295Z,100.00
2022-12-31T01:44:12.388Z,100.00
2022-12-31T01:46:56.807Z,100.00
2022-12-31T01:49:58.603Z,100.00
2022-12-31T01:52:35.000Z,100.00
2022-12-31T01:55:29.833Z,100.00
2022-12-31T01:58:07.035Z,100.00
2022-12-31T02:00:34.871Z,100.00
2022-12-31T02:03:03.006Z,100.00
2022-12-31T02:05:43.398Z,100.00
2022-12-31T02:08:11.426Z,100.00
2022-12-31T02:10:38.834Z,100.00
2022-12-31T02:13:06.258Z,100.00
2022-12-31T02:15:59.090Z,100.00
2022-12-31T02:18:40.967Z,100.00
2022-12-31T02:21:35.192Z,100.00
2022-12-31T02:24:33.987Z,100.00
2022-12-31T02:27:19.414Z,100.00
2022-12-31T02:30:12.520Z,100.00
2022-12-31T02:32:55.441Z,100.00
2022-12-31T02:35:33.614Z,100.00
2022-12-31T02:38:11.749Z,100.00
2022-12-31T02:40:39.944Z,100.00
2022-12-31T02:43:07.074Z,100.00
2022-12-31T02:45:49.234Z,100.00
2022-12-31T02:48:52.710Z,100.00
2022-12-31T02:51:53.784Z,100.00
2022-12-31T02:54:37.879Z,100.00
2022-12-31T02:57:57.662Z,100.00
2022-12-31T03:00:43.602Z,100.00
2022-12-31T03:03:11.464Z,100.00
2022-12-31T03:05:42.523Z,100.00
2022-12-31T03:08:10.183Z,100.00
2022-12-31T03:10:37.340Z,100.00
2022-12-31T03:13:04.446Z,100.00
2022-12-31T03:15:34.238Z,100.00
2022-12-31T03:18:14.591Z,100.00
2022-12-31T03:21:09.780Z,100.00
2022-12-31T03:23:42.463Z,100.00
2022-12-31T03:26:12.105Z,100.00
2022-12-31T03:28:42.421Z,100.00
2022-12-31T03:31:09.699Z,100.00
2022-12-31T03:33:40.739Z,100.00
2022-12-31T03:36:14.704Z,100.00
2022-12-31T03:38:42.266Z,100.00
2022-12-31T03:41:11.504Z,100.00
2022-12-31T03:43:38.944Z,100.00
2022-12-31T03:46:06.488Z,100.00
2022-12-31T03:48:33.681Z,100.00
2022-12-31T03:51:00.875Z,100.00
2022-12-31T03:53:27.969Z,100.00
2022-12-31T03:55:55.562Z,100.00
2022-12-31T03:58:23.356Z,100.00
2022-12-31T04:00:50.496Z,100.00
2022-12-31T04:03:17.696Z,100.00
2022-12-31T04:05:44.851Z,100.00
2022-12-31T04:08:11.971Z,100.00
2022-12-31T04:10:38.995Z,100.00
2022-12-31T04:13:06.134Z,100.00
2022-12-31T04:15:33.227Z,100.00
2022-12-31T04:18:00.287Z,100.00
2022-12-31T04:20:27.420Z,100.00
2022-12-31T04:22:54.532Z,100.00
2022-12-31T04:25:21.666Z,100.00
2022-12-31T04:27:48.813Z,100.00
2022-12-31T04:30:16.185Z,100.00
2022-12-31T04:32:43.342Z,100.00
2022-12-31T04:35:12.473Z,100.00
2022-12-31T04:37:39.781Z,100.00
2022-12-31T04:40:08.890Z,100.00
2022-12-31T04:42:36.978Z,100.00
2022-12-31T04:45:05.196Z,100.00
2022-12-31T04:47:32.253Z,100.00
2022-12-31T04:49:59.364Z,100.00
2022-12-31T04:52:26.466Z,100.00
2022-12-31T04:54:53.519Z,100.00
2022-12-31T04:57:20.738Z,100.00
2022-12-31T04:59:47.762Z,100.00
2022-12-31T05:02:15.225Z,100.00
2022-12-31T05:04:43.819Z,100.00
2022-12-31T05:07:10.894Z,100.00
2022-12-31T05:09:38.091Z,100.00
2022-12-31T05:12:05.669Z,100.00
2022-12-31T05:14:32.788Z,100.00
2022-12-31T05:17:04.822Z,100.00
2022-12-31T05:19:31.932Z,100.00
2022-12-31T05:22:17.462Z,100.00
2022-12-31T05:24:44.605Z,100.00
2022-12-31T05:27:11.841Z,100.00
2022-12-31T05:29:38.940Z,100.00
2022-12-31T05:32:06.069Z,100.00
2022-12-31T05:34:33.131Z,100.00
2022-12-31T05:37:00.190Z,100.00
2022-12-31T05:39:27.293Z,100.00
2022-12-31T05:41:54.437Z,100.00
2022-12-31T05:44:21.577Z,100.00
2022-12-31T05:46:48.701Z,100.00
2022-12-31T05:49:16.589Z,100.00
2022-12-31T05:51:43.921Z,100.00
2022-12-31T05:54:11.019Z,100.00
2022-12-31T05:56:38.099Z,100.00
2022-12-31T05:59:05.347Z,100.00
2022-12-31T06:01:32.450Z,100.00
2022-12-31T06:04:00.175Z,100.00
2022-12-31T06:06:27.376Z,100.00
2022-12-31T06:08:54.874Z,100.00
2022-12-31T06:11:22.018Z,100.00
2022-12-31T06:13:49.075Z,100.00
2022-12-31T06:16:16.195Z,100.00
2022-12-31T06:18:43.378Z,100.00
2022-12-31T06:21:10.696Z,100.00
2022-12-31T06:23:37.903Z,100.00
2022-12-31T06:26:05.499Z,100.00
2022-12-31T06:28:32.724Z,100.00
2022-12-31T06:31:01.977Z,100.00
2022-12-31T06:33:29.877Z,100.00
2022-12-31T06:35:59.093Z,100.00
2022-12-31T06:38:27.918Z,100.00
2022-12-31T06:40:55.526Z,100.00
2022-12-31T06:43:23.403Z,100.00
2022-12-31T06:45:50.542Z,100.00
2022-12-31T06:48:18.620Z,100.00
2022-12-31T06:50:45.794Z,100.00
2022-12-31T06:53:13.045Z,100.00
2022-12-31T06:55:40.505Z,100.00
2022-12-31T06:58:14.253Z,100.00
2022-12-31T07:01:44.069Z,100.00
2022-12-31T07:04:42.183Z,100.00
2022-12-31T07:07:42.881Z,100.00
2022-12-31T07:11:02.494Z,100.00
2022-12-31T07:14:01.243Z,100.00
2022-12-31T07:16:47.226Z,100.00
2022-12-31T07:19:33.830Z,100.00
2022-12-31T07:22:01.197Z,100.00
2022-12-31T07:24:28.967Z,100.00
2022-12-31T07:27:22.633Z,100.00
2022-12-31T07:30:10.039Z,100.00
2022-12-31T07:33:02.844Z,100.00
2022-12-31T07:36:00.627Z,100.00
2022-12-31T07:38:42.638Z,100.00
2022-12-31T07:41:37.317Z,100.00
2022-12-31T07:44:20.545Z,100.00
2022-12-31T07:46:55.794Z,100.00
2022-12-31T07:49:24.876Z,100.00
2022-12-31T07:51:53.160Z,100.00
2022-12-31T07:54:21.097Z,100.00
2022-12-31T07:56:49.570Z,100.00
2022-12-31T07:59:41.547Z,100.00
2022-12-31T08:02:21.337Z,100.00
2022-12-31T08:05:27.207Z,100.00
2022-12-31T08:08:28.125Z,100.00
2022-12-31T08:11:36.602Z,100.00
2022-12-31T08:14:03.912Z,100.00
2022-12-31T08:16:31.395Z,100.00
2022-12-31T08:18:58.854Z,100.00
2022-12-31T08:21:52.901Z,100.00
2022-12-31T08:24:53.699Z,100.00
2022-12-31T08:27:32.927Z,100.00
2022-12-31T08:30:12.342Z,100.00
2022-12-31T08:33:24.362Z,100.00
2022-12-31T08:36:20.904Z,100.00
2022-12-31T08:39:17.247Z,100.00
2022-12-31T08:41:51.677Z,100.00
2022-12-31T08:44:44.687Z,100.00
2022-12-31T08:47:44.503Z,100.00
2022-12-31T08:50:18.974Z,100.00
2022-12-31T08:52:47.477Z,100.00
2022-12-31T08:55:19.407Z,100.00
2022-12-31T08:58:27.363Z,100.00
2022-12-31T09:00:59.396Z,100.00
2022-12-31T09:03:57.684Z,100.00
2022-12-31T09:06:34.360Z,100.00
2022-12-31T09:09:18.646Z,100.00
2022-12-31T09:11:57.718Z,100.00
2022-12-31T09:14:42.605Z,100.00
2022-12-31T09:17:44.314Z,100.00
2022-12-31T09:20:42.348Z,100.00
2022-12-31T09:23:10.266Z,100.00
2022-12-31T09:25:59.247Z,100.00
2022-12-31T09:28:39.361Z,100.00
2022-12-31T09:31:22.000Z,100.00
2022-12-31T09:34:07.157Z,100.00
2022-12-31T09:36:46.823Z,100.00
2022-12-31T09:39:38.123Z,100.00
2022-12-31T09:42:42.654Z,100.00
2022-12-31T09:45:57.124Z,100.00
2022-12-31T09:49:03.691Z,100.00
2022-12-31T09:51:58.224Z,100.00
2022-12-31T09:55:13.196Z,100.00
2022-12-31T09:58:03.945Z,100.00
2022-12-31T10:00:48.200Z,100.00
2022-12-31T10:03:38.361Z,100.00
2022-12-31T10:06:32.217Z,100.00
2022-12-31T10:09:36.403Z,100.00
2022-12-31T10:12:24.646Z,100.00
2022-12-31T10:15:05.734Z,100.00
2022-12-31T10:18:07.164Z,100.00
2022-12-31T10:20:54.127Z,100.00
2022-12-31T10:23:59.512Z,100.00
2022-12-31T10:26:42.620Z,100.00
2022-12-31T10:29:30.650Z,100.00
2022-12-31T10:32:18.748Z,100.00
2022-12-31T10:35:24.181Z,100.00
2022-12-31T10:38:16.932Z,100.00
2022-12-31T10:41:11.391Z,100.00
2022-12-31T10:44:12.381Z,100.00
2022-12-31T10:47:01.292Z,100.00
2022-12-31T10:50:17.227Z,100.00
2022-12-31T10:53:18.188Z,100.00
2022-12-31T10:56:21.656Z,100.00
2022-12-31T10:59:41.221Z,100.00
2022-12-31T11:02:42.702Z,100.00
2022-12-31T11:06:05.892Z,100.00
2022-12-31T11:09:37.937Z,100.00
2022-12-31T11:12:40.685Z,100.00
2022-12-31T11:15:25.950Z,100.00
2022-12-31T11:18:33.429Z,100.00
2022-12-31T11:21:17.291Z,100.00
2022-12-31T11:24:37.030Z,100.00
2022-12-31T11:27:57.621Z,100.00
2022-12-31T11:31:12.869Z,100.00
2022-12-31T11:34:28.681Z,100.00
2022-12-31T11:37:04.515Z,100.00
2022-12-31T11:40:01.313Z,100.00
2022-12-31T11:42:59.069Z,100.00
2022-12-31T11:45:54.021Z,100.00
2022-12-31T11:48:34.842Z,100.00
2022-12-31T11:51:55.506Z,100.00
2022-12-31T11:55:02.203Z,100.00
2022-12-31T11:57:39.600Z,100.00
2022-12-31T12:00:36.009Z,100.00
2022-12-31T12:03:06.869Z,100.00
2022-12-31T12:05:35.676Z,100.00
2022-12-31T12:08:03.324Z,100.00
2022-12-31T12:10:47.930Z,100.00
2022-12-31T12:13:23.812Z,100.00
2022-12-31T12:16:03.580Z,100.00
2022-12-31T12:18:42.824Z,100.00
2022-12-31T12:21:22.859Z,100.00
2022-12-31T12:24:20.861Z,100.00
2022-12-31T12:26:48.168Z,100.00
2022-12-31T12:29:21.649Z,100.00
2022-12-31T12:32:21.113Z,100.00
2022-12-31T12:34:50.193Z,100.00
2022-12-31T12:37:34.434Z,100.00
2022-12-31T12:40:05.181Z,100.00
2022-12-31T12:42:33.237Z,100.00
2022-12-31T12:45:18.206Z,100.00
2022-12-31T12:47:48.325Z,100.00
2022-12-31T12:50:19.458Z,100.00
2022-12-31T12:53:08.627Z,100.00
2022-12-31T12:56:09.132Z,100.00
2022-12-31T12:58:57.794Z,100.00
2022-12-31T13:01:55.146Z,100.00
2022-12-31T13:04:50.923Z,100.00
2022-12-31T13:07:51.590Z,100.00
2022-12-31T13:10:48.313Z,100.00
2022-12-31T13:13:45.514Z,100.00
2022-12-31T13:16:59.815Z,100.00
2022-12-31T13:19:46.669Z,100.00
2022-12-31T13:22:25.389Z,100.00
2022-12-31T13:25:19.890Z,100.00
2022-12-31T13:27:51.154Z,100.00
2022-12-31T13:30:23.125Z,100.00
2022-12-31T13:33:09.476Z,100.00
2022-12-31T13:36:08.018Z,100.00
2022-12-31T13:38:48.927Z,100.00
2022-12-31T13:41:46.712Z,100.00
2022-12-31T13:44:35.461Z,100.00
2022-12-31T13:47:33.947Z,100.00
2022-12-31T13:50:42.091Z,100.00
2022-12-31T13:53:31.592Z,100.00
2022-12-31T13:56:11.642Z,100.00
2022-12-31T13:58:57.756Z,100.00
2022-12-31T14:01:34.724Z,100.00
2022-12-31T14:04:17.430Z,100.00
2022-12-31T14:07:06.844Z,100.00
2022-12-31T14:09:35.734Z,100.00
2022-12-31T14:12:21.209Z,100.00
2022-12-31T14:15:28.599Z,100.00
2022-12-31T14:18:16.794Z,100.00
2022-12-31T14:21:12.156Z,100.00
2022-12-31T14:24:00.775Z,100.00
2022-12-31T14:26:52.490Z,100.00
2022-12-31T14:30:02.040Z,100.00
2022-12-31T14:32:44.151Z,100.00
2022-12-31T14:35:40.571Z,100.00
2022-12-31T14:38:53.782Z,100.00
2022-12-31T14:42:00.011Z,100.00
2022-12-31T14:45:18.569Z,100.00
2022-12-31T14:48:21.932Z,100.00
2022-12-31T14:50:49.602Z,100.00
2022-12-31T14:53:25.741Z,100.00
2022-12-31T14:56:06.171Z,100.00
2022-12-31T14:58:42.602Z,100.00
2022-12-31T15:01:15.785Z,100.00
2022-12-31T15:03:46.201Z,100.00
2022-12-31T15:06:37.521Z,100.00
2022-12-31T15:09:41.060Z,100.00
2022-12-31T15:12:47.866Z,100.00
2022-12-31T15:15:36.328Z,100.00
2022-12-31T15:18:24.867Z,100.00
2022-12-31T15:21:16.698Z,100.00
2022-12-31T15:23:46.091Z,100.00
2022-12-31T15:26:31.424Z,100.00
2022-12-31T15:29:05.375Z,100.00
2022-12-31T15:31:35.557Z,100.00
2022-12-31T15:34:25.221Z,100.00
2022-12-31T15:37:00.388Z,100.00
2022-12-31T15:39:44.298Z,100.00
2022-12-31T15:42:50.447Z,100.00
2022-12-31T15:45:31.588Z,100.00
2022-12-31T15:48:03.159Z,100.00
2022-12-31T15:50:30.862Z,100.00
2022-12-31T15:53:03.719Z,100.00
2022-12-31T15:55:40.961Z,100.00
2022-12-31T15:58:17.636Z,100.00
2022-12-31T16:01:15.916Z,98.88
2022-12-31T16:03:49.223Z,99.64
2022-12-31T16:06:17.970Z,99.16
2022-12-31T16:08:49.383Z,98.41
2022-12-31T16:11:17.623Z,97.41
2022-12-31T16:13:51.403Z,98.23
2022-12-31T16:16:23.886Z,98.27
2022-12-31T16:18:52.960Z,99.25
2022-12-31T16:21:34.344Z,98.54
2022-12-31T16:24:30.009Z,98.53
2022-12-31T16:27:05.569Z,97.75
2022-12-31T16:29:35.607Z,97.22
2022-12-31T16:32:03.378Z,96.42
2022-12-31T16:34:38.457Z,97.71
2022-12-31T16:37:17.850Z,96.96
2022-12-31T16:39:56.977Z,96.96
2022-12-31T16:42:27.352Z,97.21
2022-12-31T16:44:56.651Z,97.70
2022-12-31T16:47:32.823Z,96.52
2022-12-31T16:50:20.808Z,96.65
2022-12-31T16:52:51.456Z,96.75
2022-12-31T16:55:23.546Z,96.19
2022-12-31T16:58:07.646Z,97.28
2022-12-31T17:00:36.304Z,97.42
2022-12-31T17:03:11.402Z,96.24
2022-12-31T17:06:14.404Z,96.52
2022-12-31T17:09:05.548Z,96.04
2022-12-31T17:11:50.323Z,95.76
2022-12-31T17:14:23.133Z,97.93
2022-12-31T17:17:07.427Z,96.05
2022-12-31T17:19:41.465Z,95.18
2022-12-31T17:22:36.776Z,95.16
2022-12-31T17:25:07.379Z,96.07
2022-12-31T17:27:36.440Z,96.02
2022-12-31T17:30:28.458Z,95.36
2022-12-31T17:33:19.521Z,94.12
2022-12-31T17:35:47.532Z,94.97
2022-12-31T17:38:23.530Z,95.11
2022-12-31T17:41:06.607Z,94.23
2022-12-31T17:43:36.636Z,94.09
2022-12-31T17:46:15.049Z,93.34
2022-12-31T17:48:43.434Z,94.34
2022-12-31T17:51:10.621Z,94.68
2022-12-31T17:53:37.819Z,94.28
2022-12-31T17:56:10.293Z,93.77
2022-12-31T17:58:47.822Z,93.75
2022-12-31T18:01:20.480Z,92.99
2022-12-31T18:03:48.399Z,93.03
2022-12-31T18:06:17.233Z,92.59
2022-12-31T18:08:44.581Z,91.99
2022-12-31T18:11:18.594Z,93.21
2022-12-31T18:13:46.106Z,92.53
2022-12-31T18:16:13.220Z,93.71
2022-12-31T18:18:41.821Z,92.79
2022-12-31T18:21:22.722Z,92.95
2022-12-31T18:23:50.533Z,90.70
2022-12-31T18:26:21.649Z,92.21
2022-12-31T18:28:49.977Z,91.38
2022-12-31T18:31:24.106Z,93.78
2022-12-31T18:33:53.685Z,91.61
2022-12-31T18:36:22.832Z,91.84
2022-12-31T18:38:50.382Z,93.21
2022-12-31T18:41:23.831Z,90.48
2022-12-31T18:43:51.533Z,89.92
2022-12-31T18:46:22.296Z,91.07
2022-12-31T18:48:49.828Z,90.20
2022-12-31T18:51:23.998Z,90.50
2022-12-31T18:53:53.699Z,89.46
2022-12-31T18:56:22.158Z,91.00
2022-12-31T18:58:49.456Z,88.77
2022-12-31T19:01:46.028Z,89.39
2022-12-31T19:04:26.499Z,86.38
2022-12-31T19:06:54.668Z,88.56
2022-12-31T19:12:13.435Z,84.87
2022-12-31T19:14:40.518Z,88.59
2022-12-31T19:19:34.616Z,89.92
2022-12-31T19:22:02.598Z,87.43
2022-12-31T19:24:29.881Z,88.07
2022-12-31T19:26:56.992Z,87.22
2022-12-31T19:29:27.498Z,88.06
2022-12-31T19:31:54.952Z,86.22
2022-12-31T19:34:22.104Z,86.84
2022-12-31T19:36:49.276Z,88.34
2022-12-31T19:39:20.323Z,86.54
2022-12-31T19:41:51.694Z,88.95
2022-12-31T19:44:25.702Z,89.22
2022-12-31T19:46:52.861Z,87.92
2022-12-31T19:49:19.943Z,87.77
2022-12-31T19:51:46.979Z,87.59
2022-12-31T19:54:14.360Z,85.71
2022-12-31T19:56:41.643Z,86.84
2022-12-31T19:59:10.863Z,85.09
2022-12-31T20:01:38.390Z,87.48
2022-12-31T20:04:05.859Z,85.07
2022-12-31T20:06:33.113Z,89.69
2022-12-31T20:09:00.324Z,87.89
2022-12-31T20:11:27.960Z,90.52
2022-12-31T20:13:55.061Z,88.97
2022-12-31T20:16:26.571Z,86.92
2022-12-31T20:18:53.824Z,85.67
2022-12-31T20:21:27.289Z,86.45
2022-12-31T20:23:55.486Z,87.68
2022-12-31T20:26:24.448Z,87.41
2022-12-31T20:28:52.826Z,86.06
2022-12-31T20:31:23.719Z,87.30
2022-12-31T20:33:51.467Z,88.25
2022-12-31T20:36:18.687Z,85.61
2022-12-31T20:38:46.433Z,86.37
2022-12-31T20:41:17.889Z,85.29
2022-12-31T20:43:45.880Z,85.36
2022-12-31T20:46:21.004Z,86.79
2022-12-31T20:48:50.085Z,88.55
2022-12-31T20:51:18.841Z,84.69
2022-12-31T20:53:51.218Z,85.49
2022-12-31T20:56:19.137Z,86.88
2022-12-31T20:58:46.425Z,85.48
2022-12-31T21:01:15.238Z,84.12
2022-12-31T21:06:33.499Z,83.22
2022-12-31T21:09:03.316Z,83.60
2022-12-31T21:11:49.201Z,81.80
2022-12-31T21:14:16.268Z,84.09
2022-12-31T21:16:43.412Z,86.33
2022-12-31T21:19:10.630Z,85.00
2022-12-31T21:21:37.803Z,85.54
2022-12-31T21:24:05.353Z,84.34
2022-12-31T21:26:32.552Z,83.74
2022-12-31T21:28:59.756Z,85.71
2022-12-31T21:31:27.078Z,86.97
2022-12-31T21:33:54.296Z,85.87
2022-12-31T21:36:21.365Z,84.65
2022-12-31T21:38:48.470Z,86.50
2022-12-31T21:41:35.071Z,84.36
2022-12-31T21:44:03.145Z,85.62
2022-12-31T21:46:30.617Z,86.41
2022-12-31T21:48:59.683Z,86.92
2022-12-31T21:51:27.368Z,88.60
2022-12-31T21:53:54.587Z,85.05
2022-12-31T21:56:22.755Z,85.87
2022-12-31T21:59:17.053Z,87.00
2022-12-31T22:02:03.094Z,85.95
2022-12-31T22:07:17.736Z,86.92
2022-12-31T22:09:44.860Z,82.30
2022-12-31T22:12:11.936Z,84.83
2022-12-31T22:14:39.023Z,81.62
2022-12-31T22:17:26.043Z,87.42
2022-12-31T22:20:25.168Z,83.22
2022-12-31T22:22:40.479Z,84.92
2022-12-31T22:25:08.582Z,85.39
2022-12-31T22:27:35.728Z,87.15
2022-12-31T22:30:02.860Z,83.96
2022-12-31T22:32:29.984Z,83.27
2022-12-31T22:34:56.988Z,85.40
2022-12-31T22:40:11.599Z,83.74
2022-12-31T22:42:38.804Z,83.52
2022-12-31T22:45:07.602Z,83.57
2022-12-31T22:47:35.413Z,83.99
2022-12-31T22:50:02.459Z,82.48
2022-12-31T22:52:29.509Z,84.00
2022-12-31T22:54:56.660Z,81.00
2022-12-31T22:57:23.729Z,84.10
2022-12-31T22:59:51.955Z,84.36
2022-12-31T23:02:19.152Z,86.99
2022-12-31T23:04:46.321Z,84.73
2022-12-31T23:07:13.510Z,82.69
2022-12-31T23:09:59.400Z,81.98
2022-12-31T23:12:26.590Z,81.61
2022-12-31T23:15:12.428Z,84.50
2022-12-31T23:17:58.319Z,83.87
2022-12-31T23:20:44.916Z,81.13
2022-12-31T23:23:16.743Z,84.77
2022-12-31T23:25:50.098Z,82.06
2022-12-31T23:28:21.912Z,80.96
2022-12-31T23:30:51.316Z,80.06
2022-12-31T23:33:22.168Z,79.00
2022-12-31T23:35:49.588Z,81.37
2022-12-31T23:38:18.479Z,84.36
2022-12-31T23:40:46.057Z,82.24
2022-12-31T23:43:21.378Z,81.92
2022-12-31T23:45:52.841Z,85.55
2022-12-31T23:48:19.965Z,83.73
2022-12-31T23:50:53.616Z,81.59
2022-12-31T23:53:25.046Z,84.92
2022-12-31T23:55:53.619Z,82.92
2022-12-31T23:58:21.514Z,84.64
